Airfield :
LOGIN :

Register | Disclaimer

   EN    FR    IT 

 










Legend :    VFR   Marginal VFR   IFR   Intensive IFR   Very Intensive IFR
Visi :
Ceiling :
>= 8 km
>= 3000ft
5 to 8 km
1000 to 3000 ft
1500m to 5 km
500 to 1000 ft
800 to 1500m
200 to 500 ft
< 800m
< 200 ft
Symbols :   Thunderstorms  Fog  Heavy snow  Heavy precipitations  Wind > 20 kt
SIGMETs :     Misc.  Thunderstorms  Icing  Turbulence  Mountain Waves  Volcanic Ashes






- Airport Elevation : 65 ft
- IATA code : PMO


LICJ - Palermo Punta Raisi

CURRENT METAR :
  • 192350Z 27010KT 9999 FEW030 15/08 Q1015

EXPIRED METARs :
  • 192320Z 28010KT 9999 FEW030 15/09 Q1016
  • 192250Z 28009KT 9999 FEW030 15/08 Q1016
  • 192220Z 29008KT 9999 FEW030 15/09 Q1016
  • 192150Z 30008KT 9999 SCT030 15/09 Q1016
  • 192120Z 32009KT 9999 SCT030 15/09 Q1016
  • 192050Z 33008KT 9999 SCT030 15/10 Q1016
  • 192020Z 33008KT 9999 SCT035 16/09 Q1016
  • 191950Z 34010KT 9999 SCT035 15/08 Q1016
  • 191920Z 34010KT 9999 SCT040 16/09 Q1016

TAF TAF LICJ
Valid from the 20 at 00:00 until the 21 at 00:00 UTC


192300Z 2000/2024 30010KT 9999 FEW025
BECMG 2003/2005 20010KT
BECMG 2009/2011 26012KT
TEMPO 2011/2018 25015G25KT



MET'MAP, your aeronautical weather chart ! - Copyright ORBIFLY December 2007 - Disclaimer

ORBIFLY MET'MAP TEAM :

Programming & Development : Alexandra Zaïnal
Original concept : Baudouin d'Aumeries
Technical & hardware support : Manuel Goepfert
Assistance : Marc-Olivier Méhu




SOURCES & CREDITS :

   NOAA